| Temperature (°F) | Max | Average | Min |
|---|---|---|---|
| Max Temperature | 91 | 83.63 | 71 |
| Avg Temperature | 79.89 | 73 | 67.18 |
| Min Temperature | 70 | 63.57 | 58 |
| Dew Point (°F) | Max | Average | Min |
|---|---|---|---|
| Dew Point | 69 | 61.12 | 45 |
| Precipitation (in) | Max | Average | Min | Sum |
|---|---|---|---|---|
| Precipitation | 0.38 | 0.02 | 0.00 | 0.47 |
| Snowdepth | 0.00 | 0.00 | 0.00 | 0.00 |
| Wind (mph) | Max | Average | Min |
|---|---|---|---|
| Wind | 29 | 9.1 | 0 |
| Gust Wind | 43 | 4.43 | 0 |
| Sea Level Pressure (in) | Max | Average | Min |
|---|---|---|---|
| Sea Level Pressure | 30.23 | 30 | 29.7 |
| Date | Temperature (°F) | Dew Point (°F) | Humidity (%) | Wind Speed (mph) | Pressure (in) | Precipitation (in) | ||||||||||
|---|---|---|---|---|---|---|---|---|---|---|---|---|---|---|---|---|
| Max | Avg | Min | Max | Avg | Min | Max | Avg | Min | Max | Avg | Min | Max | Avg | Min | ||
| 4/30/2026 | 91 | 79.9 | 70 | 69 | 64.1 | 57 | 93 | 61.9 | 35 | 14 | 9.2 | 3 | 29.8 | 29.8 | 29.7 | 0.00 |
| 4/29/2026 | 89 | 77.8 | 63 | 67 | 63.9 | 61 | 97 | 65.7 | 40 | 15 | 4.3 | 0 | 30.0 | 29.9 | 29.8 | 0.00 |
| 4/28/2026 | 86 | 74.6 | 65 | 68 | 65.4 | 64 | 97 | 75.4 | 48 | 17 | 7.4 | 0 | 30.0 | 30.0 | 30.0 | 0.00 |
| 4/27/2026 | 84 | 76.1 | 68 | 69 | 65.8 | 63 | 93 | 72.0 | 53 | 22 | 13.7 | 0 | 30.0 | 29.9 | 29.8 | 0.06 |
| 4/26/2026 | 87 | 76.0 | 66 | 67 | 64.6 | 57 | 97 | 70.5 | 36 | 14 | 7.4 | 0 | 29.8 | 29.8 | 29.7 | 0.00 |
| 4/25/2026 | 89 | 75.0 | 64 | 68 | 63.2 | 57 | 97 | 70.7 | 36 | 10 | 5.4 | 0 | 29.8 | 29.8 | 29.7 | 0.00 |
| 4/24/2026 | 86 | 72.8 | 62 | 63 | 58.3 | 52 | 90 | 64.5 | 33 | 13 | 4.6 | 0 | 29.9 | 29.9 | 29.8 | 0.00 |
| 4/23/2026 | 84 | 70.6 | 60 | 60 | 57.1 | 54 | 84 | 64.3 | 38 | 15 | 7.5 | 0 | 30.0 | 30.0 | 29.9 | 0.00 |
| 4/22/2026 | 81 | 71.7 | 59 | 56 | 53.4 | 51 | 75 | 53.9 | 36 | 17 | 10.1 | 0 | 30.2 | 30.1 | 30.0 | 0.00 |
| 4/21/2026 | 81 | 69.8 | 59 | 56 | 49.4 | 45 | 81 | 51.4 | 29 | 20 | 11.6 | 3 | 30.2 | 30.2 | 30.1 | 0.00 |
| 4/20/2026 | 80 | 72.5 | 64 | 61 | 57.9 | 53 | 75 | 60.7 | 46 | 22 | 16.0 | 10 | 30.1 | 30.0 | 30.0 | 0.00 |
| 4/19/2026 | 87 | 77.8 | 69 | 68 | 63.0 | 59 | 93 | 62.9 | 41 | 20 | 7.0 | 0 | 30.0 | 29.9 | 29.9 | 0.00 |
| 4/18/2026 | 88 | 77.0 | 67 | 69 | 64.3 | 56 | 97 | 69.5 | 34 | 14 | 4.4 | 0 | 30.0 | 29.9 | 29.9 | 0.00 |
| 4/17/2026 | 88 | 75.1 | 62 | 66 | 60.2 | 54 | 90 | 64.2 | 33 | 12 | 4.7 | 0 | 30.0 | 30.0 | 29.9 | 0.00 |
| 4/16/2026 | 85 | 72.6 | 60 | 61 | 57.8 | 55 | 93 | 62.7 | 36 | 16 | 6.4 | 0 | 30.1 | 30.0 | 30.0 | 0.00 |
| 4/15/2026 | 84 | 71.4 | 61 | 62 | 58.1 | 55 | 93 | 65.6 | 37 | 13 | 7.4 | 0 | 30.1 | 30.1 | 30.0 | 0.00 |
| 4/14/2026 | 84 | 72.3 | 62 | 64 | 59.7 | 53 | 93 | 67.9 | 36 | 16 | 6.7 | 0 | 30.2 | 30.1 | 30.1 | 0.00 |
| 4/13/2026 | 82 | 72.1 | 62 | 60 | 57.6 | 56 | 84 | 62.3 | 42 | 15 | 8.3 | 5 | 30.2 | 30.2 | 30.1 | 0.00 |
| 4/12/2026 | 81 | 71.2 | 59 | 59 | 56.2 | 52 | 87 | 61.8 | 38 | 17 | 10.3 | 3 | 30.2 | 30.2 | 30.1 | 0.00 |
| 4/11/2026 | 81 | 70.3 | 58 | 59 | 56.7 | 52 | 93 | 65.2 | 39 | 15 | 9.7 | 6 | 30.2 | 30.2 | 30.1 | 0.00 |
| 4/10/2026 | 81 | 69.1 | 60 | 61 | 58.0 | 57 | 90 | 69.9 | 45 | 18 | 11.1 | 6 | 30.2 | 30.1 | 30.1 | 0.00 |
| 4/9/2026 | 76 | 69.9 | 66 | 64 | 62.4 | 60 | 90 | 77.3 | 62 | 23 | 16.2 | 8 | 30.1 | 30.1 | 30.0 | 0.00 |
| 4/8/2026 | 76 | 68.5 | 64 | 65 | 62.3 | 60 | 93 | 81.2 | 60 | 26 | 15.6 | 9 | 30.1 | 30.0 | 29.9 | 0.00 |
| 4/7/2026 | 71 | 67.2 | 65 | 66 | 63.4 | 58 | 97 | 87.8 | 70 | 29 | 15.0 | 5 | 29.9 | 29.9 | 29.8 | 0.00 |
| 4/6/2026 | 84 | 72.0 | 67 | 69 | 67.2 | 64 | 97 | 85.9 | 54 | 23 | 10.0 | 0 | 30.0 | 29.9 | 29.8 | 0.38 |
| 4/5/2026 | 87 | 74.8 | 67 | 68 | 66.4 | 62 | 96 | 76.9 | 47 | 15 | 7.2 | 0 | 30.1 | 30.0 | 29.9 | 0.00 |
| 4/4/2026 | 86 | 73.4 | 66 | 67 | 63.8 | 60 | 93 | 74.1 | 47 | 17 | 7.4 | 0 | 30.1 | 30.1 | 30.0 | 0.00 |
| 4/3/2026 | 85 | 76.0 | 67 | 69 | 66.4 | 63 | 96 | 73.7 | 49 | 17 | 10.8 | 5 | 30.2 | 30.1 | 30.1 | 0.00 |
| 4/2/2026 | 82 | 71.4 | 63 | 69 | 65.2 | 59 | 93 | 81.8 | 56 | 18 | 9.4 | 5 | 30.1 | 30.1 | 30.0 | 0.03 |
| 4/1/2026 | 83 | 71.6 | 62 | 66 | 61.8 | 59 | 93 | 73.2 | 45 | 22 | 8.3 | 0 | 30.2 | 30.1 | 30.1 | 0.00 |